createdAt,value
2023-03-10T00:00:12.647Z,90.22
2023-03-10T00:02:39.204Z,90.41
2023-03-10T00:05:05.976Z,90.52
2023-03-10T00:07:32.488Z,91.07
2023-03-10T00:09:59.006Z,91.30
2023-03-10T00:12:27.946Z,90.72
2023-03-10T00:14:55.028Z,90.89
2023-03-10T00:17:21.476Z,91.48
2023-03-10T00:19:47.918Z,91.72
2023-03-10T00:22:14.370Z,91.27
2023-03-10T00:24:40.811Z,90.88
2023-03-10T00:27:07.290Z,90.46
2023-03-10T00:29:33.735Z,90.64
2023-03-10T00:32:00.192Z,91.34
2023-03-10T00:34:26.717Z,91.20
2023-03-10T00:36:53.448Z,91.19
2023-03-10T00:39:19.877Z,90.77
2023-03-10T00:41:46.329Z,90.93
2023-03-10T00:44:13.258Z,91.02
2023-03-10T00:46:39.953Z,91.03
2023-03-10T00:49:10.492Z,90.87
2023-03-10T00:51:37.035Z,90.42
2023-03-10T00:54:03.614Z,90.57
2023-03-10T00:56:30.449Z,90.77
2023-03-10T00:58:58.048Z,90.74
2023-03-10T01:01:32.684Z,90.62
2023-03-10T01:04:00.242Z,89.98
2023-03-10T01:06:27.520Z,89.46
2023-03-10T01:08:55.136Z,89.24
2023-03-10T01:11:22.994Z,89.57
2023-03-10T01:13:49.907Z,90.50
2023-03-10T01:16:16.446Z,89.77
2023-03-10T01:18:43.409Z,90.53
2023-03-10T01:21:14.214Z,90.87
2023-03-10T01:23:40.644Z,90.24
2023-03-10T01:26:07.101Z,90.04
2023-03-10T01:28:33.548Z,90.54
2023-03-10T01:31:00.022Z,91.96
2023-03-10T01:33:26.840Z,91.83
2023-03-10T01:35:53.369Z,90.88
2023-03-10T01:38:19.824Z,90.86
2023-03-10T01:40:50.649Z,90.94
2023-03-10T01:43:20.195Z,90.53
2023-03-10T01:45:46.739Z,91.48
2023-03-10T01:48:13.856Z,90.85
2023-03-10T01:50:40.757Z,92.17
2023-03-10T01:53:07.344Z,92.04
2023-03-10T01:55:36.025Z,91.72
2023-03-10T01:58:04.927Z,92.00
2023-03-10T02:00:31.437Z,91.83
2023-03-10T02:03:15.064Z,91.63
2023-03-10T02:05:43.793Z,91.90
2023-03-10T02:08:11.012Z,91.17
2023-03-10T02:10:37.979Z,91.68
2023-03-10T02:13:04.541Z,92.19
2023-03-10T02:15:32.548Z,91.88
2023-03-10T02:18:00.091Z,93.72
2023-03-10T02:20:30.046Z,93.59
2023-03-10T02:22:56.528Z,92.86
2023-03-10T02:25:32.226Z,93.68
2023-03-10T02:27:59.085Z,93.64
2023-03-10T02:30:27.173Z,93.79
2023-03-10T02:32:55.957Z,93.60
2023-03-10T02:35:22.493Z,93.70
2023-03-10T02:37:50.939Z,93.24
2023-03-10T02:40:40.818Z,93.18
2023-03-10T02:43:09.017Z,92.84
2023-03-10T02:45:37.763Z,93.25
2023-03-10T02:48:04.667Z,93.62
2023-03-10T02:50:35.519Z,93.67
2023-03-10T02:53:06.625Z,93.33
2023-03-10T02:55:33.088Z,93.15
2023-03-10T02:58:02.497Z,93.23
2023-03-10T03:00:29.730Z,92.99
2023-03-10T03:02:56.197Z,92.96
2023-03-10T03:05:22.624Z,93.00
2023-03-10T03:07:49.090Z,92.93
2023-03-10T03:10:15.510Z,93.00
2023-03-10T03:12:41.947Z,92.53
2023-03-10T03:15:08.623Z,92.45
2023-03-10T03:17:35.052Z,91.70
2023-03-10T03:20:01.499Z,91.41
2023-03-10T03:22:27.935Z,91.39
2023-03-10T03:24:54.385Z,91.98
2023-03-10T03:27:20.848Z,91.61
2023-03-10T03:29:47.273Z,91.89
2023-03-10T03:32:13.758Z,92.09
2023-03-10T03:34:40.275Z,91.45
2023-03-10T03:37:06.724Z,91.39
2023-03-10T03:39:33.185Z,91.99
2023-03-10T03:41:59.715Z,92.49
2023-03-10T03:44:26.166Z,93.00
2023-03-10T03:46:52.623Z,93.53
2023-03-10T03:49:19.071Z,93.75
2023-03-10T03:51:45.767Z,93.57
2023-03-10T03:54:12.309Z,92.48
2023-03-10T03:56:38.818Z,91.81
2023-03-10T03:59:05.909Z,92.16
2023-03-10T04:01:32.338Z,91.84
2023-03-10T04:03:58.847Z,91.72
2023-03-10T04:06:25.407Z,92.17
2023-03-10T04:08:51.857Z,91.59
2023-03-10T04:11:18.391Z,91.95
2023-03-10T04:13:44.837Z,91.20
2023-03-10T04:16:11.445Z,91.74
2023-03-10T04:18:38.062Z,91.93
2023-03-10T04:21:04.556Z,91.88
2023-03-10T04:23:30.996Z,91.00
2023-03-10T04:25:57.523Z,91.05
2023-03-10T04:28:23.995Z,91.36
2023-03-10T04:30:51.299Z,91.58
2023-03-10T04:33:17.764Z,91.20
2023-03-10T04:35:47.521Z,91.11
2023-03-10T04:38:14.058Z,91.71
2023-03-10T04:40:40.513Z,91.69
2023-03-10T04:43:06.970Z,91.38
2023-03-10T04:45:33.407Z,91.84
2023-03-10T04:47:59.835Z,91.32
2023-03-10T04:50:26.355Z,90.75
2023-03-10T04:52:52.885Z,90.16
2023-03-10T04:55:19.384Z,90.35
2023-03-10T04:57:45.884Z,90.75
2023-03-10T05:00:13.147Z,90.52
2023-03-10T05:02:40.481Z,90.25
2023-03-10T05:05:07.167Z,90.88
2023-03-10T05:07:33.640Z,90.37
2023-03-10T05:10:00.291Z,90.33
2023-03-10T05:12:26.790Z,90.12
2023-03-10T05:14:53.247Z,89.99
2023-03-10T05:17:19.742Z,89.92
2023-03-10T05:19:46.198Z,90.27
2023-03-10T05:22:12.843Z,90.03
2023-03-10T05:24:39.706Z,90.04
2023-03-10T05:27:08.281Z,90.25
2023-03-10T05:29:34.864Z,90.28
2023-03-10T05:32:01.296Z,90.16
2023-03-10T05:34:27.815Z,90.59
2023-03-10T05:36:54.514Z,90.45
2023-03-10T05:39:20.955Z,89.92
2023-03-10T05:41:47.828Z,89.86
2023-03-10T05:44:14.297Z,90.17
2023-03-10T05:46:40.779Z,90.28
2023-03-10T05:49:07.272Z,90.28
2023-03-10T05:51:33.728Z,90.22
2023-03-10T05:54:00.209Z,90.56
2023-03-10T05:56:26.714Z,90.73
2023-03-10T05:58:53.157Z,91.42
2023-03-10T06:01:19.625Z,92.10
2023-03-10T06:03:46.217Z,91.75
2023-03-10T06:06:13.064Z,91.78
2023-03-10T06:08:39.491Z,91.92
2023-03-10T06:11:06.348Z,91.91
2023-03-10T06:13:32.863Z,92.52
2023-03-10T06:16:01.093Z,92.22
2023-03-10T06:18:28.418Z,92.44
2023-03-10T06:20:55.489Z,92.44
2023-03-10T06:23:22.627Z,92.96
2023-03-10T06:25:55.918Z,93.44
2023-03-10T06:28:22.404Z,92.95
2023-03-10T06:30:53.954Z,92.21
2023-03-10T06:33:20.388Z,92.27
2023-03-10T06:35:46.833Z,92.67
2023-03-10T06:38:14.213Z,92.21
2023-03-10T06:40:40.646Z,92.48
2023-03-10T06:43:07.108Z,92.57
2023-03-10T06:45:33.689Z,93.40
2023-03-10T06:48:00.176Z,92.85
2023-03-10T06:50:26.637Z,92.89
2023-03-10T06:52:53.408Z,94.71
2023-03-10T06:55:19.882Z,93.93
2023-03-10T06:57:46.336Z,94.85
2023-03-10T07:00:15.712Z,94.80
2023-03-10T07:02:42.698Z,94.37
2023-03-10T07:05:12.679Z,95.05
2023-03-10T07:07:39.263Z,95.51
2023-03-10T07:10:08.205Z,95.38
2023-03-10T07:12:34.920Z,95.87
2023-03-10T07:15:01.365Z,96.11
2023-03-10T07:17:27.818Z,96.40
2023-03-10T07:19:54.278Z,97.69
2023-03-10T07:22:20.717Z,98.55
2023-03-10T07:24:47.206Z,99.52
2023-03-10T07:27:13.644Z,99.98
2023-03-10T07:29:40.081Z,99.70
2023-03-10T07:32:06.592Z,100.00
2023-03-10T07:34:33.193Z,100.00
2023-03-10T07:36:59.616Z,100.00
2023-03-10T07:39:26.231Z,100.00
2023-03-10T07:41:52.718Z,100.00
2023-03-10T07:44:19.219Z,100.00
2023-03-10T07:46:45.653Z,100.00
2023-03-10T07:49:12.097Z,100.00
2023-03-10T07:51:38.542Z,100.00
2023-03-10T07:54:05.080Z,100.00
2023-03-10T07:56:31.603Z,100.00
2023-03-10T07:58:58.619Z,97.94
2023-03-10T08:01:26.306Z,95.98
2023-03-10T08:03:53.883Z,95.44
2023-03-10T08:06:22.877Z,94.03
2023-03-10T08:08:49.843Z,93.04
2023-03-10T08:11:16.451Z,91.48
2023-03-10T08:13:45.388Z,89.54
2023-03-10T08:16:11.979Z,89.49
2023-03-10T08:18:39.024Z,88.60
2023-03-10T08:21:05.811Z,86.49
2023-03-10T08:23:32.894Z,83.35
2023-03-10T08:26:03.081Z,82.55
2023-03-10T08:28:30.732Z,81.57
2023-03-10T08:31:04.815Z,80.64
2023-03-10T08:33:32.068Z,80.04
2023-03-10T08:36:06.548Z,79.51
2023-03-10T08:38:33.102Z,79.04
2023-03-10T08:41:08.012Z,78.24
2023-03-10T08:43:34.597Z,78.23
2023-03-10T08:46:01.207Z,78.38
2023-03-10T08:48:27.641Z,77.81
2023-03-10T08:50:54.132Z,76.93
2023-03-10T08:53:20.647Z,76.68
2023-03-10T08:55:47.065Z,76.48
2023-03-10T08:58:13.582Z,76.17
2023-03-10T09:00:40.006Z,75.16
2023-03-10T09:03:06.513Z,75.86
2023-03-10T09:05:33.174Z,74.50
2023-03-10T09:07:59.635Z,73.22
2023-03-10T09:10:27.243Z,73.28
2023-03-10T09:13:07.225Z,74.25
2023-03-10T09:15:41.336Z,73.83
2023-03-10T09:18:08.984Z,73.10
2023-03-10T09:20:36.252Z,74.15
2023-03-10T09:23:03.156Z,73.75
2023-03-10T09:25:29.745Z,73.71
2023-03-10T09:27:56.230Z,73.52
2023-03-10T09:30:23.099Z,73.70
2023-03-10T09:32:50.037Z,73.34
2023-03-10T09:35:16.596Z,72.49
2023-03-10T09:37:43.056Z,71.85
2023-03-10T09:40:14.917Z,72.48
2023-03-10T09:42:44.726Z,72.00
2023-03-10T09:45:25.746Z,71.16
2023-03-10T09:48:11.124Z,71.37
2023-03-10T09:50:37.565Z,71.18
2023-03-10T09:53:23.003Z,70.44
2023-03-10T09:55:49.443Z,71.14
2023-03-10T09:58:29.054Z,69.35
2023-03-10T10:00:55.552Z,69.32
2023-03-10T10:03:42.961Z,69.13
2023-03-10T10:06:18.259Z,68.70
2023-03-10T10:08:54.803Z,68.82
2023-03-10T10:11:28.406Z,69.10
2023-03-10T10:14:22.330Z,68.79
2023-03-10T10:16:52.806Z,67.81
2023-03-10T10:19:23.501Z,68.72
2023-03-10T10:22:00.137Z,67.90
2023-03-10T10:24:26.658Z,68.17
2023-03-10T10:26:53.151Z,68.94
2023-03-10T10:29:24.858Z,67.85
2023-03-10T10:32:10.152Z,67.10
2023-03-10T10:34:37.761Z,68.16
2023-03-10T10:37:20.352Z,67.63
2023-03-10T10:39:48.176Z,67.42
2023-03-10T10:42:14.693Z,66.98
2023-03-10T10:44:42.302Z,67.48
2023-03-10T10:47:18.632Z,65.15
2023-03-10T10:49:45.196Z,65.81
2023-03-10T10:52:25.722Z,66.43
2023-03-10T10:54:56.743Z,67.10
2023-03-10T10:57:24.480Z,66.40
2023-03-10T10:59:51.586Z,65.83
2023-03-10T11:02:23.136Z,65.31
2023-03-10T11:04:49.645Z,66.33
2023-03-10T11:07:19.590Z,65.45
2023-03-10T11:09:46.707Z,64.42
2023-03-10T11:12:30.029Z,64.62
2023-03-10T11:14:57.754Z,65.43
2023-03-10T11:17:24.327Z,64.65
2023-03-10T11:20:09.746Z,64.60
2023-03-10T11:22:42.297Z,64.24
2023-03-10T11:25:15.384Z,63.11
2023-03-10T11:27:41.804Z,63.59
2023-03-10T11:30:26.648Z,62.63
2023-03-10T11:33:02.613Z,62.83
2023-03-10T11:35:45.735Z,62.58
2023-03-10T11:38:42.439Z,62.54
2023-03-10T11:41:12.113Z,61.82
2023-03-10T11:43:41.334Z,61.98
2023-03-10T11:46:21.381Z,61.66
2023-03-10T11:48:53.103Z,62.85
2023-03-10T11:51:27.352Z,63.28
2023-03-10T11:53:55.839Z,63.54
2023-03-10T11:56:23.472Z,63.09
2023-03-10T11:58:52.792Z,62.32
2023-03-10T12:01:28.428Z,61.99
2023-03-10T12:04:02.228Z,62.60
2023-03-10T12:06:37.615Z,61.35
2023-03-10T12:09:07.007Z,61.55
2023-03-10T12:11:35.264Z,61.71
2023-03-10T12:14:02.346Z,61.20
2023-03-10T12:16:30.900Z,61.25
2023-03-10T12:18:57.829Z,59.96
2023-03-10T12:21:28.442Z,60.29
2023-03-10T12:23:56.693Z,60.26
2023-03-10T12:26:55.512Z,60.11
2023-03-10T12:29:22.038Z,60.08
2023-03-10T12:31:49.795Z,60.79
2023-03-10T12:34:22.293Z,61.66
2023-03-10T12:36:53.380Z,59.52
2023-03-10T12:39:26.184Z,60.24
2023-03-10T12:42:00.675Z,59.73
2023-03-10T12:44:46.109Z,60.51
2023-03-10T12:47:13.547Z,60.44
2023-03-10T12:49:49.884Z,60.43
2023-03-10T12:52:35.033Z,59.74
2023-03-10T12:55:01.511Z,59.51
2023-03-10T12:57:41.601Z,59.78
2023-03-10T13:00:20.248Z,58.79
2023-03-10T13:03:12.727Z,58.98
2023-03-10T13:05:42.903Z,60.29
2023-03-10T13:08:21.217Z,59.72
2023-03-10T13:10:51.821Z,59.75
2023-03-10T13:13:18.376Z,59.83
2023-03-10T13:15:56.747Z,58.93
2023-03-10T13:18:23.714Z,59.25
2023-03-10T13:20:50.626Z,59.23
2023-03-10T13:23:22.738Z,58.53
2023-03-10T13:25:56.658Z,59.10
2023-03-10T13:28:27.660Z,58.93
2023-03-10T13:31:09.254Z,58.65
2023-03-10T13:33:50.197Z,59.48
2023-03-10T13:36:22.224Z,59.27
2023-03-10T13:38:50.048Z,59.60
2023-03-10T13:41:16.745Z,59.96
2023-03-10T13:43:45.681Z,60.87
2023-03-10T13:46:17.195Z,61.66
2023-03-10T13:48:44.328Z,61.48
2023-03-10T13:51:17.330Z,62.04
2023-03-10T13:53:44.679Z,62.40
2023-03-10T13:56:33.793Z,62.23
2023-03-10T13:59:02.964Z,62.77
2023-03-10T14:01:31.617Z,63.01
2023-03-10T14:04:05.927Z,63.00
2023-03-10T14:06:32.816Z,62.99
2023-03-10T14:09:18.034Z,63.30
2023-03-10T14:11:46.985Z,64.04
2023-03-10T14:14:25.333Z,63.89
2023-03-10T14:16:56.988Z,64.09
2023-03-10T14:19:56.596Z,64.16
2023-03-10T14:22:23.044Z,64.07
2023-03-10T14:24:49.558Z,64.56
2023-03-10T14:27:16.390Z,64.35
2023-03-10T14:29:49.345Z,63.79
2023-03-10T14:32:16.369Z,63.99
2023-03-10T14:34:42.910Z,64.44
2023-03-10T14:37:09.444Z,65.85
2023-03-10T14:39:36.003Z,66.81
2023-03-10T14:42:03.385Z,67.26
2023-03-10T14:44:30.467Z,67.61
2023-03-10T14:46:57.137Z,68.76
2023-03-10T14:49:24.735Z,69.49
2023-03-10T14:51:51.638Z,70.02
2023-03-10T14:54:22.842Z,70.76
2023-03-10T14:56:58.939Z,72.58
2023-03-10T14:59:27.737Z,72.75
2023-03-10T15:01:55.561Z,72.16
2023-03-10T15:04:22.350Z,74.05
2023-03-10T15:06:48.991Z,73.13
2023-03-10T15:09:15.490Z,73.30
2023-03-10T15:11:42.094Z,73.61
2023-03-10T15:14:16.272Z,73.23
2023-03-10T15:16:42.811Z,73.99
2023-03-10T15:19:16.837Z,74.16
2023-03-10T15:21:43.571Z,74.27
2023-03-10T15:24:10.181Z,74.57
2023-03-10T15:26:36.749Z,74.25
2023-03-10T15:29:03.269Z,74.84
2023-03-10T15:31:29.831Z,75.08
2023-03-10T15:33:56.332Z,74.70
2023-03-10T15:36:23.045Z,74.62
2023-03-10T15:38:49.579Z,74.91
2023-03-10T15:41:17.155Z,75.33
2023-03-10T15:43:43.650Z,75.34
2023-03-10T15:46:10.207Z,75.57
2023-03-10T15:48:36.800Z,75.27
2023-03-10T15:51:09.603Z,75.43
2023-03-10T15:53:36.909Z,75.71
2023-03-10T15:56:07.562Z,75.38
2023-03-10T15:58:34.545Z,76.00
2023-03-10T16:01:05.944Z,76.38
2023-03-10T16:03:38.600Z,76.50
2023-03-10T16:06:05.721Z,76.62
2023-03-10T16:08:37.235Z,77.09
2023-03-10T16:11:05.247Z,77.31
2023-03-10T16:13:33.889Z,77.02
2023-03-10T16:16:04.210Z,77.34
2023-03-10T16:18:30.671Z,77.17
2023-03-10T16:20:58.844Z,77.33
2023-03-10T16:23:26.140Z,77.08
2023-03-10T16:26:11.226Z,77.30
2023-03-10T16:28:39.068Z,77.86
2023-03-10T16:31:06.333Z,77.62
2023-03-10T16:33:33.318Z,77.31
2023-03-10T16:36:00.778Z,77.79
2023-03-10T16:38:27.728Z,77.40
2023-03-10T16:40:54.577Z,77.37
2023-03-10T16:43:21.799Z,77.46
2023-03-10T16:45:50.988Z,77.75
2023-03-10T16:48:20.949Z,78.01
2023-03-10T16:50:47.887Z,78.02
2023-03-10T16:53:16.644Z,78.56
2023-03-10T16:55:44.178Z,81.50
2023-03-10T16:58:10.908Z,81.58
2023-03-10T17:00:38.057Z,84.44
2023-03-10T17:03:04.581Z,85.94
2023-03-10T17:05:31.147Z,85.19
2023-03-10T17:08:02.445Z,84.75
2023-03-10T17:10:29.738Z,85.26
2023-03-10T17:12:56.835Z,84.66
2023-03-10T17:15:23.741Z,84.52
2023-03-10T17:17:50.393Z,85.89
2023-03-10T17:20:18.564Z,85.53
2023-03-10T17:22:45.098Z,86.37
2023-03-10T17:25:13.013Z,86.08
2023-03-10T17:27:40.278Z,86.68
2023-03-10T17:30:08.613Z,87.82
2023-03-10T17:32:35.187Z,87.64
2023-03-10T17:35:01.716Z,89.16
2023-03-10T17:37:28.229Z,88.49
2023-03-10T17:39:54.718Z,90.92
2023-03-10T17:42:22.510Z,89.77
2023-03-10T17:44:49.024Z,89.54
2023-03-10T17:47:15.518Z,91.68
2023-03-10T17:49:42.093Z,92.20
2023-03-10T17:52:08.635Z,91.25
2023-03-10T17:54:35.339Z,92.22
2023-03-10T17:57:01.949Z,93.81
2023-03-10T17:59:28.806Z,94.96
2023-03-10T18:01:55.405Z,95.73
2023-03-10T18:04:22.074Z,95.33
2023-03-10T18:06:48.630Z,95.21
2023-03-10T18:09:16.283Z,94.61
2023-03-10T18:11:42.841Z,93.99
2023-03-10T18:14:09.527Z,93.44
2023-03-10T18:16:37.852Z,92.86
2023-03-10T18:19:04.577Z,92.56
2023-03-10T18:21:31.149Z,92.08
2023-03-10T18:23:57.707Z,92.16
2023-03-10T18:26:25.595Z,91.99
2023-03-10T18:28:52.055Z,91.68
2023-03-10T18:31:26.897Z,91.85
2023-03-10T18:33:53.804Z,91.41
2023-03-10T18:36:20.769Z,90.74
2023-03-10T18:38:47.972Z,90.63
2023-03-10T18:41:17.283Z,90.80
2023-03-10T18:43:43.916Z,90.65
2023-03-10T18:46:10.447Z,90.34
2023-03-10T18:48:36.961Z,90.75
2023-03-10T18:51:03.569Z,91.19
2023-03-10T18:53:31.468Z,91.25
2023-03-10T18:55:58.842Z,90.82
2023-03-10T18:58:25.409Z,90.35
2023-03-10T19:00:52.102Z,90.31
2023-03-10T19:03:19.345Z,90.63
2023-03-10T19:05:46.525Z,90.56
2023-03-10T19:08:13.387Z,90.67
2023-03-10T19:10:40.377Z,90.39
2023-03-10T19:13:08.048Z,90.41
2023-03-10T19:15:36.589Z,90.32
2023-03-10T19:18:03.684Z,90.77
2023-03-10T19:20:30.319Z,90.76
2023-03-10T19:22:57.630Z,90.47
2023-03-10T19:25:24.757Z,90.77
2023-03-10T19:27:52.074Z,90.70
2023-03-10T19:30:20.567Z,90.86
2023-03-10T19:32:47.759Z,90.82
2023-03-10T19:35:15.333Z,90.64
2023-03-10T19:37:43.790Z,90.76
2023-03-10T19:40:17.828Z,90.56
2023-03-10T19:42:45.001Z,90.65
2023-03-10T19:45:12.604Z,90.51
2023-03-10T19:47:39.507Z,90.72
2023-03-10T19:50:06.792Z,91.15
2023-03-10T19:52:33.469Z,90.86
2023-03-10T19:55:00.625Z,91.36
2023-03-10T19:57:27.963Z,91.43
2023-03-10T19:59:55.329Z,90.99
2023-03-10T20:02:22.246Z,91.54
2023-03-10T20:04:50.505Z,91.88
2023-03-10T20:07:18.123Z,91.74
2023-03-10T20:09:48.252Z,92.33
2023-03-10T20:12:14.949Z,92.73
2023-03-10T20:14:41.507Z,93.47
2023-03-10T20:17:09.298Z,93.76
2023-03-10T20:19:35.798Z,93.55
2023-03-10T20:22:02.356Z,94.50
2023-03-10T20:24:29.118Z,95.39
2023-03-10T20:26:58.427Z,96.20
2023-03-10T20:29:25.012Z,96.39
2023-03-10T20:31:51.522Z,98.76
2023-03-10T20:34:21.522Z,98.62
2023-03-10T20:36:48.653Z,97.92
2023-03-10T20:39:15.140Z,97.73
2023-03-10T20:41:44.490Z,97.51
2023-03-10T20:44:14.166Z,96.37
2023-03-10T20:46:41.680Z,95.96
2023-03-10T20:49:08.169Z,95.74
2023-03-10T20:51:34.713Z,96.36
2023-03-10T20:54:01.191Z,95.64
2023-03-10T20:56:29.362Z,95.41
2023-03-10T20:58:59.840Z,97.88
2023-03-10T21:01:26.609Z,96.63
2023-03-10T21:03:56.593Z,96.76
2023-03-10T21:06:23.904Z,97.00
2023-03-10T21:08:50.421Z,96.09
2023-03-10T21:11:17.947Z,96.37
2023-03-10T21:13:44.557Z,96.39
2023-03-10T21:16:11.797Z,95.73
2023-03-10T21:18:38.519Z,96.02
2023-03-10T21:21:09.777Z,95.61
2023-03-10T21:23:37.352Z,95.74
2023-03-10T21:26:09.256Z,95.69
2023-03-10T21:28:35.738Z,95.10
2023-03-10T21:31:02.238Z,94.87
2023-03-10T21:33:28.730Z,95.44
2023-03-10T21:35:55.287Z,94.96
2023-03-10T21:38:21.815Z,95.08
2023-03-10T21:40:48.425Z,95.90
2023-03-10T21:43:14.862Z,95.31
2023-03-10T21:45:41.375Z,95.32
2023-03-10T21:48:08.400Z,96.22
2023-03-10T21:50:34.856Z,95.59
2023-03-10T21:53:01.376Z,95.87
2023-03-10T21:55:29.467Z,95.72
2023-03-10T21:57:55.954Z,95.62
2023-03-10T22:00:24.031Z,95.35
2023-03-10T22:02:51.288Z,95.29
2023-03-10T22:05:18.221Z,95.30
2023-03-10T22:07:44.985Z,94.86
2023-03-10T22:10:12.444Z,95.08
2023-03-10T22:12:39.002Z,95.19
2023-03-10T22:15:06.510Z,94.67
2023-03-10T22:17:33.293Z,94.24
2023-03-10T22:20:01.030Z,94.04
2023-03-10T22:22:27.482Z,94.09
2023-03-10T22:24:53.935Z,94.51
2023-03-10T22:27:20.368Z,93.60
2023-03-10T22:29:46.816Z,94.07
2023-03-10T22:32:13.401Z,94.32
2023-03-10T22:34:39.917Z,94.14
2023-03-10T22:37:06.401Z,94.07
2023-03-10T22:39:32.959Z,94.25
2023-03-10T22:41:59.460Z,94.26
2023-03-10T22:44:26.145Z,94.35
2023-03-10T22:46:52.659Z,94.12
2023-03-10T22:49:19.511Z,94.50
2023-03-10T22:51:45.954Z,94.14
2023-03-10T22:54:12.458Z,94.23
2023-03-10T22:56:38.971Z,93.79
2023-03-10T22:59:05.992Z,93.73
2023-03-10T23:01:32.560Z,93.60
2023-03-10T23:03:59.322Z,93.38
2023-03-10T23:06:29.137Z,93.12
2023-03-10T23:08:56.240Z,93.53
2023-03-10T23:11:23.028Z,94.42
2023-03-10T23:13:49.778Z,94.00
2023-03-10T23:16:18.215Z,94.00
2023-03-10T23:18:44.715Z,94.13
2023-03-10T23:21:11.384Z,94.82
2023-03-10T23:23:39.273Z,94.22
2023-03-10T23:26:05.774Z,95.56
2023-03-10T23:28:32.256Z,95.30
2023-03-10T23:31:00.453Z,95.51
2023-03-10T23:33:27.051Z,95.81
2023-03-10T23:35:56.494Z,96.47
2023-03-10T23:38:23.993Z,96.25
2023-03-10T23:40:51.284Z,95.57
2023-03-10T23:43:17.716Z,95.52
2023-03-10T23:45:44.582Z,96.24
2023-03-10T23:48:13.198Z,95.81
2023-03-10T23:50:41.996Z,98.36
2023-03-10T23:53:09.598Z,97.51
2023-03-10T23:55:38.169Z,97.23
2023-03-10T23:58:05.097Z,96.89
